Weather at Flugplatz Triengen

Public forecast

Using degrees Celsius for public forecast. Weather courtesy of forecast.io.

Closest aviation weather report (METAR) to Flugplatz Triengen

Closest report is Emmen Air Base, 12.3 nm (22.8 km) SE. Retrieved 2020/10/25 15:20 UTC (28 seconds ago):

LSME 251520Z AUTO VRB01KT 9999NDV NCD 15/08 Q1007 RMK

Closest aviation forecast (TAF) to Flugplatz Triengen

Closest forecast is Emmen Air Base, 12.3 nm (22.8 km) SE. Retrieved 2020/10/25 10:00 UTC (5 hours ago):

TAF LSME 250925Z 2510/2616 VRB03KT CAVOK TEMPO 2510/2512 9999 FEW002 BECMG 2520/2523 9999 FEW050 BKN100 TEMPO 2604/2609 RA BKN020 PROB40 TEMPO 2606/2611 27010KT